Time;durP1;ratioP1;P1;durP2;ratioP2;P2;SDS_P1;SDS_P2;PMS_P1;PMS_P2;Temp;Humidity;BMP_temperature;BMP_pressure;BME280_temperature;BME280_humidity;BME280_pressure;Samples;Min_cycle;Max_cycle;Signal;HPM_P1;HPM_P2
2022/12/13 00:01:59;;;;;;;17.15;10.25;;;-1.80;99.90;;;;;;2603284;54;20018;31
2022/12/13 00:04:34;;;;;;;17.10;9.25;;;-1.80;99.90;;;;;;2603158;54;20084;31
2022/12/13 00:07:07;;;;;;;16.45;9.65;;;-1.80;99.90;;;;;;2603215;54;20823;31
2022/12/13 00:09:42;;;;;;;16.90;9.55;;;-1.80;99.90;;;;;;2621531;47;20816;31
2022/12/13 00:12:17;;;;;;;15.65;9.82;;;-1.80;99.90;;;;;;2621954;46;20031;31
2022/12/13 00:14:52;;;;;;;17.02;9.70;;;-1.80;99.90;;;;;;2603112;54;20966;31
2022/12/13 00:17:29;;;;;;;15.52;9.80;;;-1.80;99.90;;;;;;2603147;54;20023;31
2022/12/13 00:20:03;;;;;;;15.70;9.25;;;-1.90;99.90;;;;;;2603251;54;20030;31
2022/12/13 00:22:37;;;;;;;14.40;8.95;;;-1.80;99.90;;;;;;2603073;54;20046;31
2022/12/13 00:25:11;;;;;;;16.15;9.75;;;-1.80;99.90;;;;;;2603264;54;20132;31
2022/12/13 00:27:46;;;;;;;15.93;9.68;;;-1.80;99.90;;;;;;2602974;54;20066;31
2022/12/13 00:30:21;;;;;;;15.37;8.93;;;-1.90;99.90;;;;;;2603166;54;20026;31
2022/12/13 00:32:57;;;;;;;15.70;8.50;;;-1.90;99.90;;;;;;2603351;54;20057;31
2022/12/13 00:35:32;;;;;;;14.88;9.20;;;-1.90;99.90;;;;;;2603041;54;20046;31
2022/12/13 00:38:06;;;;;;;16.90;9.95;;;-1.90;99.90;;;;;;2602996;54;20038;31
2022/12/13 00:40:41;;;;;;;15.10;8.70;;;-1.90;99.90;;;;;;2602965;54;20109;31
2022/12/13 00:43:16;;;;;;;14.93;9.23;;;-1.90;99.90;;;;;;2603032;54;20034;31
2022/12/13 00:45:51;;;;;;;17.23;10.13;;;-1.90;99.90;;;;;;2603199;54;20019;31
2022/12/13 00:48:29;;;;;;;14.90;10.10;;;-1.90;99.90;;;;;;2603232;54;20022;31
2022/12/13 00:51:07;;;;;;;17.80;9.60;;;-1.90;99.90;;;;;;2603141;54;20035;31
2022/12/13 00:53:40;;;;;;;18.48;10.52;;;-1.90;99.90;;;;;;2603230;54;20082;31
2022/12/13 00:56:13;;;;;;;17.85;10.75;;;-1.90;99.90;;;;;;2614765;31;21250;31
2022/12/13 00:58:48;;;;;;;15.40;9.63;;;-1.90;99.90;;;;;;2603082;54;20056;31
2022/12/13 01:01:25;;;;;;;15.75;8.85;;;-1.90;99.90;;;;;;2603124;54;21059;31
2022/12/13 01:04:02;;;;;;;15.75;9.93;;;-1.90;99.90;;;;;;2602971;54;20042;31
2022/12/13 01:06:38;;;;;;;15.20;9.50;;;-1.90;99.90;;;;;;2603164;54;20049;31
2022/12/13 01:09:17;;;;;;;18.20;9.82;;;-1.90;99.90;;;;;;2603037;54;20027;31
2022/12/13 01:11:51;;;;;;;16.65;9.40;;;-1.90;99.90;;;;;;2621632;47;20759;31
2022/12/13 01:14:26;;;;;;;15.97;9.03;;;-1.90;99.90;;;;;;2603065;54;20924;31
2022/12/13 01:17:01;;;;;;;14.35;8.93;;;-1.90;99.90;;;;;;2602944;54;20234;31
2022/12/13 01:19:38;;;;;;;15.00;9.02;;;-1.90;99.90;;;;;;2603009;54;20034;31
2022/12/13 01:22:13;;;;;;;15.35;8.98;;;-2.00;99.90;;;;;;2603712;54;20049;31
2022/12/13 01:24:47;;;;;;;16.70;9.15;;;-2.00;99.90;;;;;;2603614;54;20940;31
2022/12/13 01:27:22;;;;;;;11.98;8.13;;;-1.90;99.90;;;;;;2603730;54;20800;31
2022/12/13 01:29:57;;;;;;;15.43;8.40;;;-2.00;99.90;;;;;;2603738;54;20892;31
2022/12/13 01:32:32;;;;;;;16.75;9.25;;;-2.00;99.90;;;;;;2603911;54;20030;31
2022/12/13 01:35:12;;;;;;;17.20;8.63;;;-2.00;99.90;;;;;;2603748;54;20890;31
2022/12/13 01:37:46;;;;;;;13.93;8.00;;;-2.00;99.90;;;;;;2603477;54;20034;31
2022/12/13 01:40:21;;;;;;;14.50;8.65;;;-2.10;99.90;;;;;;2608038;46;20802;31
2022/12/13 01:43:00;;;;;;;17.25;8.40;;;-2.00;99.90;;;;;;2603764;54;20037;31
2022/12/13 01:45:46;;;;;;;17.43;9.10;;;-2.10;99.90;;;;;;2603654;54;20655;31
2022/12/13 01:48:22;;;;;;;15.93;8.48;;;-2.10;99.90;;;;;;2603429;54;20363;31
2022/12/13 01:51:00;;;;;;;14.60;7.90;;;-2.10;99.90;;;;;;2603731;54;20030;31
2022/12/13 01:53:36;;;;;;;13.38;8.55;;;-2.10;99.90;;;;;;2603549;54;20030;31
2022/12/13 01:56:12;;;;;;;13.30;8.13;;;-2.10;99.90;;;;;;2603707;54;20093;31
2022/12/13 01:58:44;;;;;;;13.30;8.10;;;-2.00;99.90;;;;;;2609815;39;22345;31
2022/12/13 02:01:19;;;;;;;11.27;7.13;;;-2.00;99.90;;;;;;2603657;54;20037;31
2022/12/13 02:03:53;;;;;;;14.43;8.85;;;-2.00;99.90;;;;;;2603558;54;20970;31
2022/12/13 02:06:33;;;;;;;11.60;7.67;;;-2.00;99.90;;;;;;2603560;54;20026;31
2022/12/13 02:09:08;;;;;;;12.43;7.65;;;-2.00;99.90;;;;;;2603735;54;20037;31
2022/12/13 02:11:43;;;;;;;13.98;7.97;;;-2.10;99.90;;;;;;2603407;54;20921;31
2022/12/13 02:14:17;;;;;;;13.13;7.22;;;-2.10;99.90;;;;;;2603596;54;20123;31
2022/12/13 02:16:54;;;;;;;13.25;7.85;;;-2.10;99.90;;;;;;2603620;54;19934;31
2022/12/13 02:20:09;;;;;;;13.20;7.80;;;-2.10;99.90;;;;;;2603892;54;20065;31
2022/12/13 02:22:56;;;;;;;13.48;7.75;;;-2.10;99.90;;;;;;2622200;46;20170;31
2022/12/13 02:25:41;;;;;;;12.10;7.50;;;-2.10;99.90;;;;;;2603677;54;20033;31
2022/12/13 02:28:24;;;;;;;11.45;6.45;;;-2.10;99.90;;;;;;2603537;54;20034;31
2022/12/13 02:31:09;;;;;;;11.68;6.78;;;-2.20;99.90;;;;;;2603536;54;20027;31
2022/12/13 02:33:48;;;;;;;12.75;7.50;;;-2.20;99.90;;;;;;2603512;54;20929;31
2022/12/13 02:36:25;;;;;;;9.93;6.28;;;-2.20;99.90;;;;;;2622243;46;20923;31
2022/12/13 02:39:01;;;;;;;13.18;7.30;;;-2.20;99.90;;;;;;2603573;54;20027;31
2022/12/13 02:41:37;;;;;;;10.60;6.20;;;-2.30;99.90;;;;;;2603642;54;20030;31
2022/12/13 02:44:12;;;;;;;11.55;7.03;;;-2.30;99.90;;;;;;2603463;54;20030;31
2022/12/13 02:46:59;;;;;;;11.88;6.90;;;-2.30;99.90;;;;;;2603382;54;20876;31
2022/12/13 02:49:36;;;;;;;14.73;7.50;;;-2.40;99.90;;;;;;2603368;54;20932;31
2022/12/13 02:52:11;;;;;;;11.48;6.47;;;-2.40;99.90;;;;;;2608854;46;20246;31
2022/12/13 02:54:45;;;;;;;12.37;7.10;;;-2.40;99.90;;;;;;2603409;54;20920;31
2022/12/13 02:57:31;;;;;;;12.65;7.15;;;-2.50;99.90;;;;;;2603347;54;20258;31
2022/12/13 03:00:10;;;;;;;12.45;7.00;;;-2.50;99.90;;;;;;2603551;54;20053;31
2022/12/13 03:02:53;;;;;;;13.90;7.30;;;-2.50;99.90;;;;;;2603346;54;20033;31
2022/12/13 03:08:23;;;;;;;11.40;6.93;;;-2.60;99.90;;;;;;2603687;54;20049;31
2022/12/13 03:11:03;;;;;;;12.32;7.32;;;-2.60;99.90;;;;;;2603618;54;20034;31
2022/12/13 03:13:40;;;;;;;11.50;7.35;;;-2.60;99.90;;;;;;2603630;54;20026;31
2022/12/13 03:16:29;;;;;;;13.90;7.03;;;-2.70;99.90;;;;;;2603404;54;20874;31
2022/12/13 03:19:07;;;;;;;12.43;7.78;;;-2.70;99.90;;;;;;2603337;54;20031;31
2022/12/13 03:21:41;;;;;;;12.85;7.22;;;-2.70;99.90;;;;;;2603556;54;20910;31
2022/12/13 03:24:21;;;;;;;13.23;6.63;;;-2.80;99.90;;;;;;2603715;54;20030;31
2022/12/13 03:26:55;;;;;;;15.00;8.15;;;-2.80;99.90;;;;;;2603543;54;20149;31
2022/12/13 03:29:30;;;;;;;13.32;7.82;;;-2.80;99.90;;;;;;2603694;54;20906;31
2022/12/13 03:32:05;;;;;;;13.60;7.75;;;-2.80;99.90;;;;;;2621904;46;20085;31
2022/12/13 03:34:39;;;;;;;14.85;7.80;;;-2.80;99.90;;;;;;2610035;39;22410;31
2022/12/13 03:37:18;;;;;;;12.55;7.25;;;-2.80;99.90;;;;;;2603302;54;20786;31
2022/12/13 03:39:53;;;;;;;13.02;7.70;;;-2.90;99.90;;;;;;2603345;54;20037;31
2022/12/13 03:42:26;;;;;;;11.05;7.07;;;-2.90;99.90;;;;;;2603127;54;20028;31
2022/12/13 03:45:01;;;;;;;12.05;7.45;;;-3.00;99.90;;;;;;2603338;54;20867;31
2022/12/13 03:47:35;;;;;;;13.50;7.93;;;-3.00;99.90;;;;;;2603182;54;20027;31
2022/12/13 03:50:13;;;;;;;15.77;8.13;;;-3.00;99.90;;;;;;2603401;54;20042;31
2022/12/13 03:53:02;;;;;;;13.60;7.70;;;-3.00;99.90;;;;;;2603287;54;20030;31
2022/12/13 03:55:36;;;;;;;14.45;7.10;;;-3.00;99.90;;;;;;2603321;54;20251;31
2022/12/13 03:58:11;;;;;;;13.10;7.47;;;-3.10;99.90;;;;;;2603098;54;20144;31
2022/12/13 04:00:45;;;;;;;12.20;6.65;;;-3.10;99.90;;;;;;2603064;54;20794;31
2022/12/13 04:03:20;;;;;;;14.60;8.27;;;-3.20;99.90;;;;;;2603500;54;20925;31
2022/12/13 04:05:56;;;;;;;11.43;6.75;;;-3.20;99.90;;;;;;2603497;54;21127;31
2022/12/13 04:08:30;;;;;;;14.75;7.30;;;-3.20;99.90;;;;;;2603445;54;20104;31
2022/12/13 04:13:31;;;;;;;10.73;6.70;;;-3.30;99.90;;;;;;2701505;39;20474;31
2022/12/13 04:13:58;;;;;;;14.52;7.55;;;-3.30;99.90;;;;;;2603288;54;20846;31
2022/12/13 04:16:32;;;;;;;13.43;6.40;;;-3.40;99.90;;;;;;2603212;54;20904;31
2022/12/13 04:19:06;;;;;;;13.75;7.55;;;-3.30;99.90;;;;;;2603313;54;20266;31
2022/12/13 04:21:43;;;;;;;12.87;8.30;;;-3.40;99.90;;;;;;2701827;39;21532;31
2022/12/13 04:24:17;;;;;;;18.20;9.30;;;-3.30;99.90;;;;;;2633856;31;21424;31
2022/12/13 04:26:51;;;;;;;14.05;8.52;;;-3.30;99.90;;;;;;2603023;54;20030;31
2022/12/13 04:29:26;;;;;;;14.45;8.98;;;-3.30;99.90;;;;;;2603181;54;20953;31
2022/12/13 04:32:08;;;;;;;16.25;8.68;;;-3.30;99.90;;;;;;2621472;46;20026;31
2022/12/13 04:34:59;;;;;;;15.83;7.63;;;-3.30;99.90;;;;;;2602911;54;20077;31
2022/12/13 04:37:37;;;;;;;18.97;9.00;;;-3.30;99.90;;;;;;2602928;54;20888;31
2022/12/13 04:40:16;;;;;;;16.90;8.60;;;-3.20;99.90;;;;;;2621667;46;20266;31
2022/12/13 04:42:56;;;;;;;14.25;7.30;;;-3.20;99.90;;;;;;2603304;54;20033;31
2022/12/13 04:45:30;;;;;;;15.98;8.65;;;-3.20;99.90;;;;;;2602869;54;20934;31
2022/12/13 04:48:05;;;;;;;13.57;8.30;;;-3.10;99.90;;;;;;2603398;54;20042;31
2022/12/13 04:50:39;;;;;;;14.30;8.20;;;-3.10;99.90;;;;;;2603165;54;20137;31
2022/12/13 04:53:19;;;;;;;16.63;8.18;;;-3.00;99.90;;;;;;2603395;54;20110;31
2022/12/13 04:55:53;;;;;;;16.30;8.68;;;-3.00;99.90;;;;;;2602713;54;20113;31
2022/12/13 04:58:27;;;;;;;16.08;8.63;;;-2.90;99.90;;;;;;2603004;54;20839;31
2022/12/13 05:01:01;;;;;;;15.65;8.73;;;-2.90;99.90;;;;;;2602910;54;20905;31
2022/12/13 05:03:36;;;;;;;17.60;9.02;;;-2.90;99.90;;;;;;2603354;54;20910;31
2022/12/13 05:06:12;;;;;;;14.93;9.52;;;-2.90;99.90;;;;;;2602702;54;20861;31
2022/12/13 05:09:03;;;;;;;13.57;8.20;;;-2.80;99.90;;;;;;2603172;54;20117;31
2022/12/13 05:11:45;;;;;;;20.45;10.15;;;-2.80;99.90;;;;;;2602904;54;20042;31
2022/12/13 05:14:21;;;;;;;23.70;12.70;;;-2.80;99.90;;;;;;2603066;54;20029;31
2022/12/13 05:16:56;;;;;;;20.57;11.53;;;-2.70;99.90;;;;;;2603032;54;20097;31
2022/12/13 05:19:29;;;;;;;18.45;9.98;;;-2.70;99.90;;;;;;2609417;39;22313;31
2022/12/13 05:22:05;;;;;;;16.58;9.98;;;-2.70;99.90;;;;;;2603006;54;20100;31
2022/12/13 05:24:45;;;;;;;16.30;8.95;;;-2.70;99.90;;;;;;2603092;54;20902;31
2022/12/13 05:27:19;;;;;;;16.45;8.77;;;-2.70;99.90;;;;;;2603128;54;20042;31
2022/12/13 05:29:59;;;;;;;15.45;8.90;;;-2.60;99.90;;;;;;2602976;54;20030;31
2022/12/13 05:32:38;;;;;;;14.70;9.33;;;-2.60;99.90;;;;;;2602759;54;20918;31
2022/12/13 05:35:20;;;;;;;16.67;8.93;;;-2.60;99.90;;;;;;2609324;39;21354;31
2022/12/13 05:37:56;;;;;;;17.23;9.38;;;-2.70;99.90;;;;;;2602995;54;20892;31
2022/12/13 05:40:34;;;;;;;18.48;9.85;;;-2.60;99.90;;;;;;2602947;54;20921;31
2022/12/13 05:43:09;;;;;;;17.90;9.75;;;-2.60;99.90;;;;;;2603001;54;19938;31
2022/12/13 05:45:56;;;;;;;17.98;9.95;;;-2.60;99.90;;;;;;2602777;54;20089;31
2022/12/13 05:48:30;;;;;;;18.30;9.83;;;-2.50;99.90;;;;;;2602863;54;20033;31
2022/12/13 05:51:05;;;;;;;20.40;11.10;;;-2.60;99.90;;;;;;2602795;54;20046;31
2022/12/13 05:53:46;;;;;;;19.80;10.73;;;-2.50;99.90;;;;;;2602098;54;20920;31
2022/12/13 05:56:28;;;;;;;19.60;11.00;;;-2.60;99.90;;;;;;2602824;54;20262;31
2022/12/13 05:59:02;;;;;;;18.73;10.68;;;-2.50;99.90;;;;;;2602677;54;20034;31
2022/12/13 06:01:36;;;;;;;21.57;10.80;;;-2.60;99.90;;;;;;2602912;54;21681;31
2022/12/13 06:04:16;;;;;;;18.95;11.60;;;-2.50;99.90;;;;;;2602866;54;20297;31
2022/12/13 06:06:53;;;;;;;23.58;11.77;;;-2.50;99.90;;;;;;2701694;39;22471;31
2022/12/13 06:09:29;;;;;;;21.73;12.60;;;-2.50;99.90;;;;;;2621871;46;20046;31
2022/12/13 06:12:04;;;;;;;24.17;13.43;;;-2.50;99.90;;;;;;2609910;39;22449;31
2022/12/13 06:14:58;;;;;;;20.73;11.50;;;-2.50;99.90;;;;;;2603537;54;20030;31
2022/12/13 06:17:35;;;;;;;20.88;12.30;;;-2.50;99.90;;;;;;2603731;54;20042;31
2022/12/13 06:20:11;;;;;;;21.48;11.40;;;-2.50;99.90;;;;;;2603534;54;20022;31
2022/12/13 06:22:57;;;;;;;22.38;12.02;;;-2.50;99.90;;;;;;2603475;54;20056;31
2022/12/13 06:25:31;;;;;;;22.87;12.97;;;-2.50;99.90;;;;;;2603622;54;20026;31
2022/12/13 06:28:08;;;;;;;24.38;12.70;;;-2.50;99.90;;;;;;2603394;54;20089;31
2022/12/13 06:30:42;;;;;;;16.53;9.70;;;-2.50;99.90;;;;;;2702012;39;20452;31
2022/12/13 06:33:17;;;;;;;18.30;10.50;;;-2.50;99.90;;;;;;2603851;54;20030;31
2022/12/13 06:35:58;;;;;;;18.23;10.68;;;-2.50;99.90;;;;;;2603534;54;20062;31
2022/12/13 06:38:33;;;;;;;17.90;10.15;;;-2.50;99.90;;;;;;2603690;54;20026;31
2022/12/13 06:41:17;;;;;;;18.08;9.30;;;-2.50;99.90;;;;;;2603626;54;20038;31
2022/12/13 06:43:54;;;;;;;14.70;8.75;;;-2.60;99.90;;;;;;2603363;54;20061;31
2022/12/13 06:46:28;;;;;;;17.50;9.65;;;-2.60;99.90;;;;;;2603595;54;20881;31
2022/12/13 06:49:04;;;;;;;14.70;8.75;;;-2.60;99.90;;;;;;2603561;54;20046;31
2022/12/13 06:51:38;;;;;;;13.90;8.60;;;-2.60;99.90;;;;;;2603517;54;20034;31
2022/12/13 06:54:14;;;;;;;14.63;8.30;;;-2.60;99.90;;;;;;2603468;54;20931;31
2022/12/13 06:56:48;;;;;;;17.15;7.45;;;-2.60;99.90;;;;;;2603388;54;21033;31
2022/12/13 06:59:25;;;;;;;15.73;8.73;;;-2.60;99.90;;;;;;2603384;54;20924;31
2022/12/13 07:01:59;;;;;;;16.13;9.07;;;-2.60;99.90;;;;;;2603734;54;20261;31
2022/12/13 07:04:36;;;;;;;14.00;7.90;;;-2.60;99.90;;;;;;2603502;54;20026;31
2022/12/13 07:07:10;;;;;;;18.48;9.38;;;-2.60;99.90;;;;;;2603507;54;20895;31
2022/12/13 07:09:44;;;;;;;16.92;10.02;;;-2.60;99.90;;;;;;2621511;46;22367;31
2022/12/13 07:12:19;;;;;;;12.65;8.13;;;-2.60;99.90;;;;;;2603613;54;20049;31
2022/12/13 07:14:56;;;;;;;17.00;10.10;;;-2.60;99.90;;;;;;2603417;54;20122;31
2022/12/13 07:17:31;;;;;;;18.67;10.70;;;-2.60;99.90;;;;;;2603026;54;20785;31
2022/12/13 07:20:09;;;;;;;17.95;10.68;;;-2.50;99.90;;;;;;2603313;54;20172;31
2022/12/13 07:22:43;;;;;;;18.70;9.90;;;-2.50;99.90;;;;;;2603517;54;20050;31
2022/12/13 07:25:23;;;;;;;25.33;12.80;;;-2.50;99.90;;;;;;2603302;54;20037;31
2022/12/13 07:28:04;;;;;;;24.88;13.43;;;-2.40;99.90;;;;;;2603293;54;20085;31
2022/12/13 07:30:41;;;;;;;20.70;11.90;;;-2.40;99.90;;;;;;2603580;54;20022;31
2022/12/13 07:33:16;;;;;;;25.60;11.30;;;-2.40;99.90;;;;;;2603529;54;20033;31
2022/12/13 07:36:02;;;;;;;22.15;13.00;;;-2.30;99.90;;;;;;2603455;54;20026;31
2022/12/13 07:38:36;;;;;;;22.25;13.27;;;-2.30;99.90;;;;;;2603109;54;20033;31
2022/12/13 07:41:10;;;;;;;19.77;11.40;;;-2.20;99.90;;;;;;2603305;54;20109;31
2022/12/13 07:43:45;;;;;;;22.23;13.00;;;-2.30;99.90;;;;;;2603475;54;20892;31
2022/12/13 07:46:22;;;;;;;24.05;13.88;;;-2.20;99.90;;;;;;2603240;54;20789;31
2022/12/13 07:49:08;;;;;;;24.63;13.83;;;-2.20;99.90;;;;;;2603111;54;20899;31
2022/12/13 07:51:45;;;;;;;28.80;14.95;;;-2.00;99.90;;;;;;2621726;46;20239;31
2022/12/13 07:54:21;;;;;;;25.80;14.80;;;-2.00;99.90;;;;;;2603348;54;20058;31
2022/12/13 07:56:56;;;;;;;27.33;14.35;;;-2.00;99.90;;;;;;2603178;54;20794;31
2022/12/13 07:59:36;;;;;;;25.88;13.82;;;-2.00;99.90;;;;;;2603219;54;20057;31
2022/12/13 08:02:15;;;;;;;23.80;13.15;;;-2.00;99.90;;;;;;2603055;54;20814;31
2022/12/13 08:04:52;;;;;;;24.88;13.52;;;-2.00;99.90;;;;;;2603328;54;20096;31
2022/12/13 08:07:32;;;;;;;25.55;14.30;;;-2.00;99.90;;;;;;2602940;54;20023;31
2022/12/13 08:10:05;;;;;;;26.05;13.75;;;-2.00;99.90;;;;;;2603580;54;20109;31
2022/12/13 08:12:42;;;;;;;21.20;13.00;;;-2.00;99.90;;;;;;2603202;54;20029;31
2022/12/13 08:15:17;;;;;;;28.10;13.25;;;-2.00;99.90;;;;;;2603182;54;20109;31
2022/12/13 08:18:00;;;;;;;21.77;12.27;;;-2.00;99.90;;;;;;2603176;54;20747;31
2022/12/13 08:20:34;;;;;;;26.48;13.38;;;-2.00;99.90;;;;;;2603213;54;20257;31
2022/12/13 08:23:10;;;;;;;27.23;13.73;;;-1.90;99.90;;;;;;2603249;54;20782;31
2022/12/13 08:25:47;;;;;;;21.63;12.52;;;-2.00;99.90;;;;;;2602613;54;20145;31
2022/12/13 08:28:23;;;;;;;21.35;11.70;;;-1.90;99.90;;;;;;2602400;54;20027;31
2022/12/13 08:31:06;;;;;;;22.70;12.57;;;-1.90;99.90;;;;;;2603139;54;20027;31
2022/12/13 08:33:46;;;;;;;23.90;11.90;;;-1.90;99.90;;;;;;2602980;54;20085;31
2022/12/13 08:36:23;;;;;;;21.70;12.15;;;-1.90;99.90;;;;;;2603300;54;20022;31
2022/12/13 08:39:01;;;;;;;18.67;10.63;;;-1.80;99.90;;;;;;2603067;54;20097;31
2022/12/13 08:41:36;;;;;;;24.23;11.70;;;-1.80;99.90;;;;;;2603064;54;20751;31
2022/12/13 08:44:13;;;;;;;20.80;11.40;;;-1.80;99.90;;;;;;2603180;54;20046;31
2022/12/13 08:46:49;;;;;;;20.90;10.68;;;-1.80;99.90;;;;;;2603004;54;20819;31
2022/12/13 08:49:26;;;;;;;19.65;11.65;;;-1.70;99.90;;;;;;2603260;54;20030;31
2022/12/13 08:52:02;;;;;;;17.73;10.50;;;-1.70;99.90;;;;;;2602966;54;20860;31
2022/12/13 08:54:38;;;;;;;20.52;10.77;;;-1.60;99.90;;;;;;2603009;54;20049;31
2022/12/13 08:57:14;;;;;;;21.13;11.65;;;-1.60;99.90;;;;;;2602458;54;20853;31
2022/12/13 08:59:59;;;;;;;20.33;11.20;;;-1.70;99.90;;;;;;2602943;54;20022;31
2022/12/13 09:02:33;;;;;;;17.30;9.00;;;-1.60;99.90;;;;;;2603199;54;20034;31
2022/12/13 09:05:15;;;;;;;19.45;9.70;;;-1.50;99.90;;;;;;2602960;54;20870;31
2022/12/13 09:08:09;;;;;;;16.95;9.15;;;-1.50;99.90;;;;;;2603007;54;20873;31
2022/12/13 09:10:59;;;;;;;18.55;10.60;;;-1.50;99.90;;;;;;2602829;54;20022;31
2022/12/13 09:13:45;;;;;;;18.95;10.30;;;-1.50;99.90;;;;;;2603045;54;20026;31
2022/12/13 09:16:22;;;;;;;21.20;10.10;;;-1.50;99.90;;;;;;2609198;39;22491;31
2022/12/13 09:18:58;;;;;;;19.20;10.90;;;-1.50;99.90;;;;;;2603146;54;20061;31
2022/12/13 09:21:57;;;;;;;17.38;9.52;;;-1.50;99.90;;;;;;2602948;54;20026;31
2022/12/13 09:24:37;;;;;;;16.60;9.93;;;-1.50;99.90;;;;;;2602784;54;20026;31
2022/12/13 09:27:13;;;;;;;18.17;9.40;;;-1.50;99.90;;;;;;2603055;54;20049;31
2022/12/13 09:30:00;;;;;;;32.85;10.25;;;-1.50;99.90;;;;;;2606907;54;20082;31
2022/12/13 09:32:34;;;;;;;19.10;10.88;;;-1.50;99.90;;;;;;2602935;54;20034;31
2022/12/13 09:35:10;;;;;;;21.08;10.80;;;-1.40;99.90;;;;;;2602934;54;20038;31
2022/12/13 09:37:47;;;;;;;16.97;9.57;;;-1.30;99.90;;;;;;2602250;54;20857;31
2022/12/13 09:40:23;;;;;;;20.30;10.20;;;-1.20;99.90;;;;;;2602896;54;20026;31
2022/12/13 09:43:00;;;;;;;16.05;8.98;;;-1.20;99.90;;;;;;2603876;54;20927;31
2022/12/13 09:45:47;;;;;;;16.60;9.40;;;-1.10;99.90;;;;;;2702528;39;22497;31
2022/12/13 09:48:23;;;;;;;15.23;8.32;;;-0.90;99.90;;;;;;2603524;54;20050;31
2022/12/13 09:50:58;;;;;;;14.30;8.60;;;-0.70;99.90;;;;;;2603810;54;20050;31
2022/12/13 09:53:56;;;;;;;18.65;9.95;;;-0.50;99.90;;;;;;2702288;39;21564;31
2022/12/13 09:56:30;;;;;;;14.55;8.90;;;-0.30;99.90;;;;;;2603644;54;20030;31
2022/12/13 09:59:05;;;;;;;14.07;9.43;;;-0.20;99.90;;;;;;2603720;54;20933;31
2022/12/13 10:01:40;;;;;;;14.88;7.93;;;-0.10;99.90;;;;;;2603748;54;21111;31
2022/12/13 10:04:15;;;;;;;14.23;8.40;;;0.00;99.90;;;;;;2603622;54;20038;31
2022/12/13 10:06:53;;;;;;;17.52;8.73;;;0.00;99.90;;;;;;2603664;54;20030;31
2022/12/13 10:09:27;;;;;;;12.90;8.25;;;0.00;99.90;;;;;;2603799;54;20858;31
2022/12/13 10:12:05;;;;;;;17.47;9.43;;;-0.10;99.90;;;;;;2603760;54;20990;31
2022/12/13 10:14:44;;;;;;;14.65;8.48;;;-0.20;99.90;;;;;;2603467;54;21094;31
2022/12/13 10:17:22;;;;;;;13.73;8.23;;;-0.30;99.90;;;;;;2603748;54;20876;31
2022/12/13 10:19:59;;;;;;;19.23;9.90;;;-0.30;99.90;;;;;;2603685;54;20913;31
2022/12/13 10:22:35;;;;;;;15.88;9.48;;;-0.20;99.90;;;;;;2603648;54;20041;31
2022/12/13 10:25:11;;;;;;;14.97;9.27;;;-0.20;99.90;;;;;;2603512;54;20892;31
2022/12/13 10:27:48;;;;;;;18.00;8.90;;;-0.20;99.90;;;;;;2603600;54;20109;31
2022/12/13 10:30:26;;;;;;;14.20;8.27;;;-0.20;99.90;;;;;;2603716;54;20022;31
2022/12/13 10:33:03;;;;;;;13.77;8.48;;;-0.20;99.90;;;;;;2603943;54;20856;31
2022/12/13 10:35:40;;;;;;;15.17;9.17;;;-0.30;99.90;;;;;;2603717;54;20046;31
2022/12/13 10:38:24;;;;;;;13.00;7.95;;;-0.20;99.90;;;;;;2603557;54;22007;31
2022/12/13 10:41:27;;;;;;;15.63;9.18;;;-0.20;99.90;;;;;;2603760;54;20077;31
2022/12/13 10:44:21;;;;;;;14.73;8.33;;;-0.20;99.90;;;;;;2603914;54;20815;31
2022/12/13 10:47:07;;;;;;;14.70;8.52;;;-0.30;99.90;;;;;;2603542;54;20125;31
2022/12/13 10:49:42;;;;;;;15.50;8.23;;;-0.30;99.90;;;;;;2603400;54;20934;31
2022/12/13 10:52:26;;;;;;;13.20;7.83;;;-0.30;99.90;;;;;;2603248;54;19934;31
2022/12/13 10:55:06;;;;;;;14.27;7.72;;;-0.30;99.90;;;;;;2603758;54;20112;31
2022/12/13 10:57:58;;;;;;;14.55;8.50;;;-0.20;99.90;;;;;;2603629;54;20022;31
2022/12/13 11:00:39;;;;;;;14.68;8.25;;;-0.10;99.90;;;;;;2701915;39;20768;31
2022/12/13 11:03:16;;;;;;;18.05;9.02;;;-0.10;99.90;;;;;;2603458;54;20049;31
2022/12/13 11:05:50;;;;;;;;;;;-0.10;99.90;;;;;;2603976;54;20850;31
2022/12/13 11:08:29;;;;;;;13.88;8.48;;;-0.20;99.90;;;;;;2603437;54;20728;31
2022/12/13 11:11:05;;;;;;;14.68;8.77;;;-0.20;99.90;;;;;;2603577;54;20042;31
2022/12/13 11:13:41;;;;;;;11.85;7.80;;;-0.10;99.90;;;;;;2603581;54;20030;31
2022/12/13 11:16:23;;;;;;;16.30;8.02;;;-0.10;99.90;;;;;;2603479;54;20904;31
2022/12/13 11:19:00;;;;;;;14.00;7.68;;;-0.20;99.90;;;;;;2603693;54;20136;31
2022/12/13 11:21:36;;;;;;;13.75;7.55;;;-0.20;99.90;;;;;;2603340;54;20964;31
2022/12/13 11:24:20;;;;;;;14.35;6.75;;;-0.20;99.90;;;;;;2603636;54;20062;31
2022/12/13 11:26:58;;;;;;;12.30;6.82;;;-0.20;99.90;;;;;;2603359;54;20076;31
2022/12/13 11:29:49;;;;;;;13.45;7.45;;;-0.30;99.90;;;;;;2603526;54;20026;31
2022/12/13 11:32:32;;;;;;;13.15;7.00;;;-0.30;99.90;;;;;;2603409;54;20029;31
2022/12/13 11:35:12;;;;;;;13.55;8.00;;;-0.30;99.90;;;;;;2603465;54;20048;31
2022/12/13 11:37:50;;;;;;;13.30;7.50;;;-0.30;99.90;;;;;;2603370;54;20050;31
2022/12/13 11:40:26;;;;;;;14.82;8.20;;;-0.30;99.90;;;;;;2603274;54;20050;31
2022/12/13 11:43:01;;;;;;;12.85;6.88;;;-0.40;99.90;;;;;;2603153;54;20982;31
2022/12/13 11:45:38;;;;;;;13.55;7.22;;;-0.40;99.90;;;;;;2603450;54;20081;31
2022/12/13 11:48:19;;;;;;;12.95;8.20;;;-0.50;99.90;;;;;;2603275;54;20182;31
2022/12/13 11:50:55;;;;;;;10.75;6.80;;;-0.60;99.90;;;;;;2603510;54;20050;31
2022/12/13 11:53:32;;;;;;;13.80;7.25;;;-0.60;99.90;;;;;;2603479;54;20078;31
2022/12/13 11:56:09;;;;;;;11.93;7.22;;;-0.70;99.90;;;;;;2621601;46;20076;31
2022/12/13 11:58:47;;;;;;;11.98;7.03;;;-0.70;99.90;;;;;;2603409;54;20022;31
2022/12/13 12:01:43;;;;;;;11.75;6.80;;;-0.80;99.90;;;;;;2603288;54;20963;31
2022/12/13 12:04:21;;;;;;;13.52;7.80;;;-0.80;99.90;;;;;;2603292;54;20029;31
2022/12/13 12:07:00;;;;;;;11.68;6.15;;;-0.80;99.90;;;;;;2602881;54;20042;31
2022/12/13 12:09:58;;;;;;;12.20;6.47;;;-0.80;99.90;;;;;;2603342;54;20791;31
2022/12/13 12:12:33;;;;;;;11.53;6.97;;;-0.80;99.90;;;;;;2611760;39;22382;31
2022/12/13 12:15:07;;;;;;;11.07;6.07;;;-0.70;99.90;;;;;;2622226;46;20933;31
2022/12/13 12:17:49;;;;;;;10.90;6.22;;;-0.70;99.90;;;;;;2603345;54;20046;31
2022/12/13 12:20:28;;;;;;;12.57;6.57;;;-0.50;99.90;;;;;;2604127;54;20871;31
2022/12/13 12:23:04;;;;;;;11.90;6.88;;;-0.40;99.90;;;;;;2604124;54;20878;31
2022/12/13 12:25:42;;;;;;;13.30;6.65;;;-0.30;99.90;;;;;;2603197;54;20897;31
2022/12/13 12:28:20;;;;;;;9.90;5.70;;;-0.40;99.90;;;;;;2612131;54;20033;31
2022/12/13 12:30:57;;;;;;;11.32;5.97;;;-0.40;99.90;;;;;;2603628;54;20052;31
2022/12/13 12:33:34;;;;;;;11.77;6.63;;;-0.40;99.90;;;;;;2631011;46;20780;31
2022/12/13 12:36:15;;;;;;;11.30;5.75;;;-0.40;99.90;;;;;;2603742;54;20050;-75
2022/12/13 12:39:27;;;;;;;11.65;6.18;;;-0.50;99.90;;;;;;2605919;54;20049;31
2022/12/13 12:42:00;;;;;;;9.60;6.20;;;-0.50;99.90;;;;;;2697690;39;20291;31
2022/12/13 12:44:35;;;;;;;9.32;6.15;;;-0.60;99.90;;;;;;2625631;39;20390;31
2022/12/13 12:47:18;;;;;;;11.63;6.25;;;-0.60;99.90;;;;;;2616913;54;20027;31
2022/12/13 12:50:16;;;;;;;11.57;6.50;;;-0.60;99.90;;;;;;2611611;39;21026;31
2022/12/13 12:53:02;;;;;;;13.32;6.53;;;-0.60;99.90;;;;;;2603042;54;20030;31
2022/12/13 12:55:48;;;;;;;12.90;6.63;;;-0.60;99.90;;;;;;2621518;46;20026;31
2022/12/13 12:58:26;;;;;;;11.82;7.03;;;-0.60;99.90;;;;;;2603198;54;20033;31
2022/12/13 13:01:09;;;;;;;11.90;6.50;;;-0.60;99.90;;;;;;2603093;54;20026;31
2022/12/13 13:03:45;;;;;;;10.55;6.10;;;-0.60;99.90;;;;;;2603157;54;20069;31
2022/12/13 13:06:19;;;;;;;11.90;6.20;;;-0.60;99.90;;;;;;2609849;39;22383;31
2022/12/13 13:08:58;;;;;;;11.60;6.43;;;-0.60;99.90;;;;;;2603035;54;20835;31
2022/12/13 13:11:31;;;;;;;12.80;6.27;;;-0.70;99.90;;;;;;2603240;54;20023;31
2022/12/13 13:14:08;;;;;;;11.93;6.68;;;-0.70;99.90;;;;;;2603069;54;20868;31
2022/12/13 13:16:43;;;;;;;11.43;6.40;;;-0.70;99.90;;;;;;2603713;54;20048;31
2022/12/13 13:19:42;;;;;;;11.20;5.75;;;-0.80;99.90;;;;;;2604870;54;20962;31
2022/12/13 13:22:33;;;;;;;13.18;7.53;;;-0.80;99.90;;;;;;2603885;54;19937;31
2022/12/13 13:25:37;;;;;;;12.25;6.80;;;-0.80;99.90;;;;;;2622295;46;20033;31
2022/12/13 13:28:31;;;;;;;14.10;6.75;;;-0.80;99.90;;;;;;2603902;54;20049;31
2022/12/13 13:31:07;;;;;;;12.30;6.68;;;-0.90;99.90;;;;;;2603803;54;20111;31
2022/12/13 13:33:46;;;;;;;;;;;-0.90;99.90;;;;;;2604063;54;20022;31
2022/12/13 13:36:51;;;;;;;14.85;7.65;;;-0.90;99.90;;;;;;2603886;54;20791;31
2022/12/13 13:39:23;;;;;;;10.10;5.55;;;-0.90;99.90;;;;;;2603815;54;20922;31
2022/12/13 13:42:11;;;;;;;10.52;6.18;;;-1.00;99.90;;;;;;2722014;39;20498;31
2022/12/13 13:45:00;;;;;;;;;;;-1.00;99.90;;;;;;2604076;54;20034;31
2022/12/13 13:47:40;;;;;;;11.60;6.25;;;-1.10;99.90;;;;;;2604065;54;19934;31